sensor_id;sensor_type;location;lat;lon;timestamp;P1;durP1;ratioP1;P2;durP2;ratioP2
32292;SDS011;43233;48.608;8.838;2022-10-16T00:00:00;1.97;;;1.87;;
32292;SDS011;43233;48.608;8.838;2022-10-16T00:02:25;2.37;;;2.20;;
32292;SDS011;43233;48.608;8.838;2022-10-16T00:04:51;2.70;;;2.50;;
32292;SDS011;43233;48.608;8.838;2022-10-16T00:07:16;3.13;;;2.50;;
32292;SDS011;43233;48.608;8.838;2022-10-16T00:09:42;4.83;;;2.93;;
32292;SDS011;43233;48.608;8.838;2022-10-16T00:12:08;2.87;;;2.67;;
32292;SDS011;43233;48.608;8.838;2022-10-16T00:14:33;2.60;;;2.40;;
32292;SDS011;43233;48.608;8.838;2022-10-16T00:16:59;4.13;;;2.20;;
32292;SDS011;43233;48.608;8.838;2022-10-16T00:19:24;4.07;;;3.63;;
32292;SDS011;43233;48.608;8.838;2022-10-16T00:21:50;4.30;;;2.63;;
32292;SDS011;43233;48.608;8.838;2022-10-16T00:24:15;2.77;;;2.57;;
32292;SDS011;43233;48.608;8.838;2022-10-16T00:26:41;4.70;;;2.90;;
32292;SDS011;43233;48.608;8.838;2022-10-16T00:29:07;4.47;;;3.10;;
32292;SDS011;43233;48.608;8.838;2022-10-16T00:31:33;2.93;;;2.20;;
32292;SDS011;43233;48.608;8.838;2022-10-16T00:33:59;4.10;;;2.23;;
32292;SDS011;43233;48.608;8.838;2022-10-16T00:36:25;3.27;;;2.97;;
32292;SDS011;43233;48.608;8.838;2022-10-16T00:38:52;3.40;;;2.47;;
32292;SDS011;43233;48.608;8.838;2022-10-16T00:41:20;6.23;;;4.13;;
32292;SDS011;43233;48.608;8.838;2022-10-16T00:43:47;5.80;;;3.80;;
32292;SDS011;43233;48.608;8.838;2022-10-16T00:46:31;6.17;;;3.73;;
32292;SDS011;43233;48.608;8.838;2022-10-16T00:49:14;3.90;;;3.13;;
32292;SDS011;43233;48.608;8.838;2022-10-16T00:54:15;4.87;;;3.07;;
32292;SDS011;43233;48.608;8.838;2022-10-16T00:56:47;5.43;;;3.07;;
32292;SDS011;43233;48.608;8.838;2022-10-16T00:59:24;4.00;;;3.00;;
32292;SDS011;43233;48.608;8.838;2022-10-16T01:01:55;4.80;;;3.60;;
32292;SDS011;43233;48.608;8.838;2022-10-16T01:04:22;3.10;;;2.80;;
32292;SDS011;43233;48.608;8.838;2022-10-16T01:17:51;2.47;;;2.33;;
32292;SDS011;43233;48.608;8.838;2022-10-16T01:23:05;4.47;;;2.60;;
32292;SDS011;43233;48.608;8.838;2022-10-16T01:28:28;2.77;;;2.57;;
32292;SDS011;43233;48.608;8.838;2022-10-16T01:31:03;3.00;;;2.20;;
32292;SDS011;43233;48.608;8.838;2022-10-16T01:33:35;2.30;;;2.10;;
32292;SDS011;43233;48.608;8.838;2022-10-16T01:36:11;2.73;;;2.53;;
32292;SDS011;43233;48.608;8.838;2022-10-16T01:38:39;3.07;;;2.40;;
32292;SDS011;43233;48.608;8.838;2022-10-16T01:41:08;3.10;;;2.23;;
32292;SDS011;43233;48.608;8.838;2022-10-16T01:43:53;1.83;;;1.73;;
32292;SDS011;43233;48.608;8.838;2022-10-16T01:46:26;2.43;;;2.23;;
32292;SDS011;43233;48.608;8.838;2022-10-16T01:48:53;2.20;;;2.00;;
32292;SDS011;43233;48.608;8.838;2022-10-16T01:51:20;2.40;;;2.20;;
32292;SDS011;43233;48.608;8.838;2022-10-16T01:53:48;2.10;;;2.00;;
32292;SDS011;43233;48.608;8.838;2022-10-16T01:56:18;1.90;;;1.80;;
32292;SDS011;43233;48.608;8.838;2022-10-16T01:58:49;1.77;;;1.67;;
32292;SDS011;43233;48.608;8.838;2022-10-16T02:01:36;3.90;;;3.50;;
32292;SDS011;43233;48.608;8.838;2022-10-16T02:04:13;4.43;;;4.03;;
32292;SDS011;43233;48.608;8.838;2022-10-16T02:06:46;3.10;;;2.60;;
32292;SDS011;43233;48.608;8.838;2022-10-16T02:09:12;3.40;;;2.17;;
32292;SDS011;43233;48.608;8.838;2022-10-16T02:11:40;2.00;;;1.90;;
32292;SDS011;43233;48.608;8.838;2022-10-16T02:14:06;2.80;;;2.00;;
32292;SDS011;43233;48.608;8.838;2022-10-16T02:16:33;4.43;;;1.73;;
32292;SDS011;43233;48.608;8.838;2022-10-16T02:19:02;5.50;;;1.93;;
32292;SDS011;43233;48.608;8.838;2022-10-16T02:21:29;2.40;;;2.30;;
32292;SDS011;43233;48.608;8.838;2022-10-16T02:26:51;2.40;;;2.20;;
32292;SDS011;43233;48.608;8.838;2022-10-16T02:29:23;1.77;;;1.67;;
32292;SDS011;43233;48.608;8.838;2022-10-16T02:31:51;1.90;;;1.80;;
32292;SDS011;43233;48.608;8.838;2022-10-16T02:34:20;3.37;;;2.13;;
32292;SDS011;43233;48.608;8.838;2022-10-16T02:36:48;5.50;;;2.37;;
32292;SDS011;43233;48.608;8.838;2022-10-16T02:39:15;1.87;;;1.77;;
32292;SDS011;43233;48.608;8.838;2022-10-16T02:41:41;2.60;;;2.07;;
32292;SDS011;43233;48.608;8.838;2022-10-16T02:44:07;6.10;;;1.83;;
32292;SDS011;43233;48.608;8.838;2022-10-16T02:46:33;2.80;;;1.60;;
32292;SDS011;43233;48.608;8.838;2022-10-16T02:48:59;1.90;;;1.80;;
32292;SDS011;43233;48.608;8.838;2022-10-16T02:51:24;3.37;;;1.87;;
32292;SDS011;43233;48.608;8.838;2022-10-16T02:53:50;1.60;;;1.50;;
32292;SDS011;43233;48.608;8.838;2022-10-16T02:56:15;9.67;;;1.90;;
32292;SDS011;43233;48.608;8.838;2022-10-16T02:58:41;3.63;;;1.87;;
32292;SDS011;43233;48.608;8.838;2022-10-16T03:01:06;3.80;;;1.70;;
32292;SDS011;43233;48.608;8.838;2022-10-16T03:03:32;3.33;;;1.77;;
32292;SDS011;43233;48.608;8.838;2022-10-16T03:05:58;2.20;;;2.00;;
32292;SDS011;43233;48.608;8.838;2022-10-16T03:08:24;6.10;;;2.00;;
32292;SDS011;43233;48.608;8.838;2022-10-16T03:10:50;2.20;;;2.00;;
32292;SDS011;43233;48.608;8.838;2022-10-16T03:13:16;4.90;;;1.90;;
32292;SDS011;43233;48.608;8.838;2022-10-16T03:15:43;2.10;;;1.70;;
32292;SDS011;43233;48.608;8.838;2022-10-16T03:18:08;2.83;;;1.50;;
32292;SDS011;43233;48.608;8.838;2022-10-16T03:20:34;1.73;;;1.63;;
32292;SDS011;43233;48.608;8.838;2022-10-16T03:23:00;2.30;;;2.10;;
32292;SDS011;43233;48.608;8.838;2022-10-16T03:25:27;5.93;;;2.30;;
32292;SDS011;43233;48.608;8.838;2022-10-16T03:27:53;3.33;;;1.63;;
32292;SDS011;43233;48.608;8.838;2022-10-16T03:30:18;2.60;;;2.40;;
32292;SDS011;43233;48.608;8.838;2022-10-16T03:32:44;2.60;;;1.73;;
32292;SDS011;43233;48.608;8.838;2022-10-16T03:35:11;1.90;;;1.80;;
32292;SDS011;43233;48.608;8.838;2022-10-16T03:37:37;5.70;;;2.10;;
32292;SDS011;43233;48.608;8.838;2022-10-16T03:40:03;2.23;;;2.03;;
32292;SDS011;43233;48.608;8.838;2022-10-16T03:42:30;2.40;;;2.13;;
32292;SDS011;43233;48.608;8.838;2022-10-16T03:44:55;3.53;;;2.10;;
32292;SDS011;43233;48.608;8.838;2022-10-16T03:47:21;2.10;;;2.00;;
32292;SDS011;43233;48.608;8.838;2022-10-16T03:49:48;2.67;;;2.33;;
32292;SDS011;43233;48.608;8.838;2022-10-16T03:52:14;4.20;;;2.10;;
32292;SDS011;43233;48.608;8.838;2022-10-16T03:54:40;2.30;;;2.10;;
32292;SDS011;43233;48.608;8.838;2022-10-16T03:57:05;7.23;;;2.03;;
32292;SDS011;43233;48.608;8.838;2022-10-16T03:59:31;4.43;;;2.17;;
32292;SDS011;43233;48.608;8.838;2022-10-16T04:01:56;2.07;;;1.97;;
32292;SDS011;43233;48.608;8.838;2022-10-16T04:04:22;3.53;;;1.60;;
32292;SDS011;43233;48.608;8.838;2022-10-16T04:06:47;2.50;;;1.87;;
32292;SDS011;43233;48.608;8.838;2022-10-16T04:09:13;6.43;;;2.13;;
32292;SDS011;43233;48.608;8.838;2022-10-16T04:11:39;1.90;;;1.80;;
32292;SDS011;43233;48.608;8.838;2022-10-16T04:14:04;1.90;;;1.80;;
32292;SDS011;43233;48.608;8.838;2022-10-16T04:16:30;5.60;;;1.70;;
32292;SDS011;43233;48.608;8.838;2022-10-16T04:18:55;1.90;;;1.80;;
32292;SDS011;43233;48.608;8.838;2022-10-16T04:21:21;2.50;;;1.70;;
32292;SDS011;43233;48.608;8.838;2022-10-16T04:23:47;3.90;;;1.60;;
32292;SDS011;43233;48.608;8.838;2022-10-16T04:26:14;3.17;;;2.03;;
32292;SDS011;43233;48.608;8.838;2022-10-16T04:28:39;2.27;;;2.10;;
32292;SDS011;43233;48.608;8.838;2022-10-16T04:31:05;1.70;;;1.60;;
32292;SDS011;43233;48.608;8.838;2022-10-16T04:33:31;1.70;;;1.60;;
32292;SDS011;43233;48.608;8.838;2022-10-16T04:35:58;5.10;;;1.73;;
32292;SDS011;43233;48.608;8.838;2022-10-16T04:38:25;1.60;;;1.60;;
32292;SDS011;43233;48.608;8.838;2022-10-16T04:40:51;5.33;;;1.93;;
32292;SDS011;43233;48.608;8.838;2022-10-16T04:43:17;2.43;;;1.60;;
32292;SDS011;43233;48.608;8.838;2022-10-16T04:45:46;4.10;;;1.70;;
32292;SDS011;43233;48.608;8.838;2022-10-16T04:48:11;2.50;;;1.73;;
32292;SDS011;43233;48.608;8.838;2022-10-16T04:50:37;1.53;;;1.43;;
32292;SDS011;43233;48.608;8.838;2022-10-16T04:53:03;1.90;;;1.80;;
32292;SDS011;43233;48.608;8.838;2022-10-16T04:55:28;2.20;;;1.50;;
32292;SDS011;43233;48.608;8.838;2022-10-16T04:57:54;1.80;;;1.70;;
32292;SDS011;43233;48.608;8.838;2022-10-16T05:00:19;1.70;;;1.50;;
32292;SDS011;43233;48.608;8.838;2022-10-16T05:02:45;3.13;;;1.70;;
32292;SDS011;43233;48.608;8.838;2022-10-16T05:05:11;1.67;;;1.57;;
32292;SDS011;43233;48.608;8.838;2022-10-16T05:07:37;6.10;;;1.37;;
32292;SDS011;43233;48.608;8.838;2022-10-16T05:10:02;1.90;;;1.80;;
32292;SDS011;43233;48.608;8.838;2022-10-16T05:12:28;1.77;;;1.67;;
32292;SDS011;43233;48.608;8.838;2022-10-16T05:14:54;1.60;;;1.50;;
32292;SDS011;43233;48.608;8.838;2022-10-16T05:17:23;2.50;;;1.50;;
32292;SDS011;43233;48.608;8.838;2022-10-16T05:19:50;1.57;;;1.47;;
32292;SDS011;43233;48.608;8.838;2022-10-16T05:22:16;2.87;;;2.13;;
32292;SDS011;43233;48.608;8.838;2022-10-16T05:24:41;2.27;;;2.07;;
32292;SDS011;43233;48.608;8.838;2022-10-16T05:27:07;1.57;;;1.47;;
32292;SDS011;43233;48.608;8.838;2022-10-16T05:29:32;2.27;;;2.07;;
32292;SDS011;43233;48.608;8.838;2022-10-16T05:31:58;1.67;;;1.57;;
32292;SDS011;43233;48.608;8.838;2022-10-16T05:34:23;3.80;;;1.67;;
32292;SDS011;43233;48.608;8.838;2022-10-16T05:36:49;2.00;;;1.83;;
32292;SDS011;43233;48.608;8.838;2022-10-16T05:39:15;1.50;;;1.40;;
32292;SDS011;43233;48.608;8.838;2022-10-16T05:41:41;1.90;;;1.80;;
32292;SDS011;43233;48.608;8.838;2022-10-16T05:44:07;1.80;;;1.63;;
32292;SDS011;43233;48.608;8.838;2022-10-16T05:46:33;1.40;;;1.40;;
32292;SDS011;43233;48.608;8.838;2022-10-16T05:48:58;1.97;;;1.87;;
32292;SDS011;43233;48.608;8.838;2022-10-16T05:51:24;1.87;;;1.77;;
32292;SDS011;43233;48.608;8.838;2022-10-16T05:53:50;1.60;;;1.50;;
32292;SDS011;43233;48.608;8.838;2022-10-16T05:56:17;1.50;;;1.40;;
32292;SDS011;43233;48.608;8.838;2022-10-16T05:58:42;1.87;;;1.60;;
32292;SDS011;43233;48.608;8.838;2022-10-16T06:03:36;1.97;;;1.87;;
32292;SDS011;43233;48.608;8.838;2022-10-16T06:06:11;1.70;;;1.57;;
32292;SDS011;43233;48.608;8.838;2022-10-16T06:08:39;2.10;;;1.30;;
32292;SDS011;43233;48.608;8.838;2022-10-16T06:11:06;3.03;;;1.80;;
32292;SDS011;43233;48.608;8.838;2022-10-16T06:13:34;1.90;;;1.80;;
32292;SDS011;43233;48.608;8.838;2022-10-16T06:16:00;1.30;;;1.27;;
32292;SDS011;43233;48.608;8.838;2022-10-16T06:18:27;1.80;;;1.70;;
32292;SDS011;43233;48.608;8.838;2022-10-16T06:20:53;1.90;;;1.80;;
32292;SDS011;43233;48.608;8.838;2022-10-16T06:23:19;2.20;;;2.10;;
32292;SDS011;43233;48.608;8.838;2022-10-16T06:25:45;2.30;;;1.63;;
32292;SDS011;43233;48.608;8.838;2022-10-16T06:28:11;1.90;;;1.80;;
32292;SDS011;43233;48.608;8.838;2022-10-16T06:30:38;2.07;;;1.90;;
32292;SDS011;43233;48.608;8.838;2022-10-16T06:33:03;2.50;;;2.17;;
32292;SDS011;43233;48.608;8.838;2022-10-16T06:35:29;3.03;;;1.73;;
32292;SDS011;43233;48.608;8.838;2022-10-16T06:37:56;8.93;;;2.30;;
32292;SDS011;43233;48.608;8.838;2022-10-16T06:40:22;3.40;;;2.60;;
32292;SDS011;43233;48.608;8.838;2022-10-16T06:42:48;2.90;;;2.53;;
32292;SDS011;43233;48.608;8.838;2022-10-16T06:45:13;2.47;;;2.27;;
32292;SDS011;43233;48.608;8.838;2022-10-16T06:47:39;2.67;;;2.47;;
32292;SDS011;43233;48.608;8.838;2022-10-16T06:50:05;2.00;;;1.90;;
32292;SDS011;43233;48.608;8.838;2022-10-16T06:52:32;4.57;;;2.33;;
32292;SDS011;43233;48.608;8.838;2022-10-16T06:54:58;2.17;;;1.97;;
32292;SDS011;43233;48.608;8.838;2022-10-16T06:57:24;2.10;;;2.00;;
32292;SDS011;43233;48.608;8.838;2022-10-16T06:59:49;3.47;;;2.07;;
32292;SDS011;43233;48.608;8.838;2022-10-16T07:02:15;1.80;;;1.70;;
32292;SDS011;43233;48.608;8.838;2022-10-16T07:04:40;2.23;;;1.83;;
32292;SDS011;43233;48.608;8.838;2022-10-16T07:07:06;1.73;;;1.63;;
32292;SDS011;43233;48.608;8.838;2022-10-16T07:09:32;2.00;;;1.90;;
32292;SDS011;43233;48.608;8.838;2022-10-16T07:11:57;1.80;;;1.70;;
32292;SDS011;43233;48.608;8.838;2022-10-16T07:14:23;1.67;;;1.57;;
32292;SDS011;43233;48.608;8.838;2022-10-16T07:16:48;1.63;;;1.53;;
32292;SDS011;43233;48.608;8.838;2022-10-16T07:19:14;8.23;;;1.80;;
32292;SDS011;43233;48.608;8.838;2022-10-16T07:21:42;3.63;;;2.00;;
32292;SDS011;43233;48.608;8.838;2022-10-16T07:24:11;3.80;;;2.20;;
32292;SDS011;43233;48.608;8.838;2022-10-16T07:26:39;2.20;;;2.00;;
32292;SDS011;43233;48.608;8.838;2022-10-16T07:29:16;2.03;;;1.87;;
32292;SDS011;43233;48.608;8.838;2022-10-16T07:31:43;2.20;;;2.10;;
32292;SDS011;43233;48.608;8.838;2022-10-16T07:34:10;5.70;;;2.20;;
32292;SDS011;43233;48.608;8.838;2022-10-16T07:36:37;1.70;;;1.60;;
32292;SDS011;43233;48.608;8.838;2022-10-16T07:39:03;1.90;;;1.80;;
32292;SDS011;43233;48.608;8.838;2022-10-16T07:41:29;2.03;;;1.67;;
32292;SDS011;43233;48.608;8.838;2022-10-16T07:43:55;3.10;;;1.90;;
32292;SDS011;43233;48.608;8.838;2022-10-16T07:46:24;3.83;;;2.27;;
32292;SDS011;43233;48.608;8.838;2022-10-16T07:48:50;3.47;;;2.10;;
32292;SDS011;43233;48.608;8.838;2022-10-16T07:51:20;1.83;;;1.73;;
32292;SDS011;43233;48.608;8.838;2022-10-16T07:53:47;2.57;;;2.30;;
32292;SDS011;43233;48.608;8.838;2022-10-16T07:56:13;1.70;;;1.60;;
32292;SDS011;43233;48.608;8.838;2022-10-16T07:58:40;5.80;;;2.07;;
32292;SDS011;43233;48.608;8.838;2022-10-16T08:01:07;3.10;;;2.40;;
32292;SDS011;43233;48.608;8.838;2022-10-16T08:03:34;2.33;;;2.13;;
32292;SDS011;43233;48.608;8.838;2022-10-16T08:06:00;1.93;;;1.83;;
32292;SDS011;43233;48.608;8.838;2022-10-16T08:08:26;2.37;;;2.17;;
32292;SDS011;43233;48.608;8.838;2022-10-16T08:10:52;5.40;;;2.70;;
32292;SDS011;43233;48.608;8.838;2022-10-16T08:13:18;2.33;;;1.73;;
32292;SDS011;43233;48.608;8.838;2022-10-16T08:15:45;2.50;;;2.30;;
32292;SDS011;43233;48.608;8.838;2022-10-16T08:18:11;2.17;;;1.97;;
32292;SDS011;43233;48.608;8.838;2022-10-16T08:20:38;3.60;;;2.37;;
32292;SDS011;43233;48.608;8.838;2022-10-16T08:23:04;1.80;;;1.70;;
32292;SDS011;43233;48.608;8.838;2022-10-16T08:25:30;2.50;;;1.90;;
32292;SDS011;43233;48.608;8.838;2022-10-16T08:27:56;2.30;;;2.10;;
32292;SDS011;43233;48.608;8.838;2022-10-16T08:30:22;3.53;;;2.43;;
32292;SDS011;43233;48.608;8.838;2022-10-16T08:32:48;2.50;;;2.30;;
32292;SDS011;43233;48.608;8.838;2022-10-16T08:35:14;2.03;;;1.93;;
32292;SDS011;43233;48.608;8.838;2022-10-16T08:37:40;2.07;;;1.97;;
32292;SDS011;43233;48.608;8.838;2022-10-16T08:40:07;3.40;;;1.60;;
32292;SDS011;43233;48.608;8.838;2022-10-16T08:48:52;3.70;;;2.47;;
32292;SDS011;43233;48.608;8.838;2022-10-16T08:54:34;6.33;;;2.70;;
32292;SDS011;43233;48.608;8.838;2022-10-16T08:56:35;1.93;;;1.83;;
32292;SDS011;43233;48.608;8.838;2022-10-16T08:59:01;2.53;;;2.33;;
32292;SDS011;43233;48.608;8.838;2022-10-16T09:01:42;4.17;;;3.00;;
32292;SDS011;43233;48.608;8.838;2022-10-16T09:07:27;2.50;;;2.10;;
32292;SDS011;43233;48.608;8.838;2022-10-16T09:18:24;1.53;;;1.50;;
32292;SDS011;43233;48.608;8.838;2022-10-16T09:23:48;1.87;;;1.67;;
32292;SDS011;43233;48.608;8.838;2022-10-16T09:26:15;1.40;;;1.30;;
32292;SDS011;43233;48.608;8.838;2022-10-16T09:28:43;1.97;;;1.87;;
32292;SDS011;43233;48.608;8.838;2022-10-16T09:31:13;2.50;;;2.10;;
32292;SDS011;43233;48.608;8.838;2022-10-16T09:33:42;3.27;;;1.67;;
32292;SDS011;43233;48.608;8.838;2022-10-16T09:36:10;1.80;;;1.70;;
32292;SDS011;43233;48.608;8.838;2022-10-16T09:38:37;3.33;;;1.67;;
32292;SDS011;43233;48.608;8.838;2022-10-16T09:41:11;15.30;;;1.70;;
32292;SDS011;43233;48.608;8.838;2022-10-16T09:43:39;7.80;;;1.50;;
32292;SDS011;43233;48.608;8.838;2022-10-16T09:46:07;1.80;;;1.70;;
32292;SDS011;43233;48.608;8.838;2022-10-16T09:48:49;1.60;;;1.50;;
32292;SDS011;43233;48.608;8.838;2022-10-16T09:51:22;4.67;;;2.77;;
32292;SDS011;43233;48.608;8.838;2022-10-16T09:53:57;1.97;;;1.60;;
32292;SDS011;43233;48.608;8.838;2022-10-16T09:56:28;2.80;;;1.60;;
32292;SDS011;43233;48.608;8.838;2022-10-16T09:58:58;2.03;;;1.67;;
32292;SDS011;43233;48.608;8.838;2022-10-16T10:01:38;3.53;;;1.33;;
32292;SDS011;43233;48.608;8.838;2022-10-16T10:04:06;2.03;;;1.73;;
32292;SDS011;43233;48.608;8.838;2022-10-16T10:09:26;2.40;;;1.60;;
32292;SDS011;43233;48.608;8.838;2022-10-16T10:11:57;2.90;;;1.53;;
32292;SDS011;43233;48.608;8.838;2022-10-16T10:14:25;5.13;;;1.33;;
32292;SDS011;43233;48.608;8.838;2022-10-16T10:17:28;2.50;;;1.60;;
32292;SDS011;43233;48.608;8.838;2022-10-16T10:22:41;2.30;;;1.63;;
32292;SDS011;43233;48.608;8.838;2022-10-16T10:33:44;1.80;;;1.70;;
32292;SDS011;43233;48.608;8.838;2022-10-16T10:35:54;3.40;;;1.60;;
32292;SDS011;43233;48.608;8.838;2022-10-16T10:38:30;9.80;;;5.97;;
32292;SDS011;43233;48.608;8.838;2022-10-16T10:41:34;23.17;;;10.50;;
32292;SDS011;43233;48.608;8.838;2022-10-16T10:47:01;3.47;;;2.53;;
32292;SDS011;43233;48.608;8.838;2022-10-16T10:55:18;30.57;;;16.27;;
32292;SDS011;43233;48.608;8.838;2022-10-16T11:00:31;17.00;;;12.53;;
32292;SDS011;43233;48.608;8.838;2022-10-16T11:09:15;6.37;;;5.03;;
32292;SDS011;43233;48.608;8.838;2022-10-16T11:14:30;32.27;;;21.43;;
32292;SDS011;43233;48.608;8.838;2022-10-16T11:17:04;72.37;;;39.10;;
32292;SDS011;43233;48.608;8.838;2022-10-16T11:19:54;65.00;;;41.87;;
32292;SDS011;43233;48.608;8.838;2022-10-16T11:27:45;8.37;;;6.10;;
32292;SDS011;43233;48.608;8.838;2022-10-16T11:30:20;1.67;;;1.57;;
32292;SDS011;43233;48.608;8.838;2022-10-16T11:32:54;2.30;;;1.67;;
32292;SDS011;43233;48.608;8.838;2022-10-16T11:35:33;2.97;;;1.57;;
32292;SDS011;43233;48.608;8.838;2022-10-16T11:38:24;5.70;;;1.47;;
32292;SDS011;43233;48.608;8.838;2022-10-16T11:40:52;2.67;;;1.63;;
32292;SDS011;43233;48.608;8.838;2022-10-16T11:45:56;1.60;;;1.40;;
32292;SDS011;43233;48.608;8.838;2022-10-16T11:48:32;2.50;;;1.50;;
32292;SDS011;43233;48.608;8.838;2022-10-16T11:51:09;1.47;;;1.23;;
32292;SDS011;43233;48.608;8.838;2022-10-16T11:54:02;8.40;;;1.83;;
32292;SDS011;43233;48.608;8.838;2022-10-16T11:56:55;2.00;;;1.60;;
32292;SDS011;43233;48.608;8.838;2022-10-16T12:05:02;1.60;;;1.50;;
32292;SDS011;43233;48.608;8.838;2022-10-16T12:07:35;1.40;;;1.40;;
32292;SDS011;43233;48.608;8.838;2022-10-16T12:10:21;2.30;;;1.60;;
32292;SDS011;43233;48.608;8.838;2022-10-16T12:12:48;4.00;;;1.43;;
32292;SDS011;43233;48.608;8.838;2022-10-16T12:15:19;1.50;;;1.40;;
32292;SDS011;43233;48.608;8.838;2022-10-16T12:17:52;2.20;;;1.77;;
32292;SDS011;43233;48.608;8.838;2022-10-16T12:20:20;4.83;;;1.70;;
32292;SDS011;43233;48.608;8.838;2022-10-16T12:25:28;2.87;;;1.23;;
32292;SDS011;43233;48.608;8.838;2022-10-16T12:27:59;8.43;;;2.00;;
32292;SDS011;43233;48.608;8.838;2022-10-16T12:30:27;6.43;;;1.60;;
32292;SDS011;43233;48.608;8.838;2022-10-16T12:32:55;1.47;;;1.20;;
32292;SDS011;43233;48.608;8.838;2022-10-16T12:35:24;4.07;;;1.30;;
32292;SDS011;43233;48.608;8.838;2022-10-16T12:37:53;1.30;;;1.20;;
32292;SDS011;43233;48.608;8.838;2022-10-16T12:40:30;1.33;;;1.20;;
32292;SDS011;43233;48.608;8.838;2022-10-16T12:42:57;1.47;;;1.10;;
32292;SDS011;43233;48.608;8.838;2022-10-16T12:45:25;3.30;;;1.20;;
32292;SDS011;43233;48.608;8.838;2022-10-16T12:47:59;1.60;;;1.50;;
32292;SDS011;43233;48.608;8.838;2022-10-16T12:50:31;2.40;;;1.30;;
32292;SDS011;43233;48.608;8.838;2022-10-16T12:52:57;5.70;;;1.40;;
32292;SDS011;43233;48.608;8.838;2022-10-16T12:55:24;4.50;;;1.43;;
32292;SDS011;43233;48.608;8.838;2022-10-16T13:00:39;1.40;;;1.30;;
32292;SDS011;43233;48.608;8.838;2022-10-16T13:06:15;1.10;;;1.10;;
32292;SDS011;43233;48.608;8.838;2022-10-16T13:19:24;3.33;;;1.47;;
32292;SDS011;43233;48.608;8.838;2022-10-16T13:25:21;4.23;;;1.20;;
32292;SDS011;43233;48.608;8.838;2022-10-16T13:30:29;1.73;;;1.47;;
32292;SDS011;43233;48.608;8.838;2022-10-16T13:35:54;3.83;;;1.80;;
32292;SDS011;43233;48.608;8.838;2022-10-16T13:38:22;4.37;;;1.60;;
32292;SDS011;43233;48.608;8.838;2022-10-16T13:40:56;4.10;;;2.03;;
32292;SDS011;43233;48.608;8.838;2022-10-16T13:43:42;2.77;;;1.67;;
32292;SDS011;43233;48.608;8.838;2022-10-16T13:46:12;5.27;;;1.50;;
32292;SDS011;43233;48.608;8.838;2022-10-16T13:48:40;2.00;;;1.40;;
32292;SDS011;43233;48.608;8.838;2022-10-16T13:53:43;4.60;;;1.57;;
32292;SDS011;43233;48.608;8.838;2022-10-16T13:56:10;3.67;;;1.60;;
32292;SDS011;43233;48.608;8.838;2022-10-16T13:58:38;2.23;;;1.33;;
32292;SDS011;43233;48.608;8.838;2022-10-16T14:01:05;6.60;;;1.50;;
32292;SDS011;43233;48.608;8.838;2022-10-16T14:03:40;3.70;;;1.70;;
32292;SDS011;43233;48.608;8.838;2022-10-16T14:06:10;1.60;;;1.43;;
32292;SDS011;43233;48.608;8.838;2022-10-16T14:08:42;1.40;;;1.37;;
32292;SDS011;43233;48.608;8.838;2022-10-16T14:11:11;1.33;;;1.23;;
32292;SDS011;43233;48.608;8.838;2022-10-16T14:13:38;2.37;;;1.73;;
32292;SDS011;43233;48.608;8.838;2022-10-16T14:16:15;1.53;;;1.43;;
32292;SDS011;43233;48.608;8.838;2022-10-16T14:18:45;2.30;;;1.60;;
32292;SDS011;43233;48.608;8.838;2022-10-16T14:21:15;4.33;;;1.77;;
32292;SDS011;43233;48.608;8.838;2022-10-16T14:23:42;2.03;;;1.53;;
32292;SDS011;43233;48.608;8.838;2022-10-16T14:28:34;2.30;;;1.53;;
32292;SDS011;43233;48.608;8.838;2022-10-16T14:31:27;1.53;;;1.43;;
32292;SDS011;43233;48.608;8.838;2022-10-16T14:33:57;2.60;;;1.57;;
32292;SDS011;43233;48.608;8.838;2022-10-16T14:36:23;2.17;;;1.73;;
32292;SDS011;43233;48.608;8.838;2022-10-16T14:38:56;2.30;;;1.40;;
32292;SDS011;43233;48.608;8.838;2022-10-16T14:41:28;6.03;;;1.43;;
32292;SDS011;43233;48.608;8.838;2022-10-16T14:44:02;4.57;;;1.80;;
32292;SDS011;43233;48.608;8.838;2022-10-16T14:46:35;6.03;;;1.63;;
32292;SDS011;43233;48.608;8.838;2022-10-16T14:51:34;1.83;;;1.57;;
32292;SDS011;43233;48.608;8.838;2022-10-16T14:53:59;2.60;;;1.90;;
32292;SDS011;43233;48.608;8.838;2022-10-16T14:56:29;1.67;;;1.57;;
32292;SDS011;43233;48.608;8.838;2022-10-16T14:59:10;5.40;;;2.17;;
32292;SDS011;43233;48.608;8.838;2022-10-16T15:01:44;3.90;;;1.80;;
32292;SDS011;43233;48.608;8.838;2022-10-16T15:04:11;3.27;;;1.87;;
32292;SDS011;43233;48.608;8.838;2022-10-16T15:06:38;2.97;;;1.40;;
32292;SDS011;43233;48.608;8.838;2022-10-16T15:09:03;3.20;;;1.87;;
32292;SDS011;43233;48.608;8.838;2022-10-16T15:11:29;6.20;;;1.87;;
32292;SDS011;43233;48.608;8.838;2022-10-16T15:13:57;41.03;;;4.93;;
32292;SDS011;43233;48.608;8.838;2022-10-16T15:16:23;3.80;;;3.07;;
32292;SDS011;43233;48.608;8.838;2022-10-16T15:18:48;2.77;;;2.50;;
32292;SDS011;43233;48.608;8.838;2022-10-16T15:21:27;3.03;;;2.30;;
32292;SDS011;43233;48.608;8.838;2022-10-16T15:23:55;2.13;;;1.87;;
32292;SDS011;43233;48.608;8.838;2022-10-16T15:26:22;2.83;;;2.63;;
32292;SDS011;43233;48.608;8.838;2022-10-16T15:28:48;8.63;;;2.30;;
32292;SDS011;43233;48.608;8.838;2022-10-16T15:31:14;3.67;;;3.00;;
32292;SDS011;43233;48.608;8.838;2022-10-16T15:33:40;29.57;;;4.80;;
32292;SDS011;43233;48.608;8.838;2022-10-16T15:36:06;2.30;;;2.10;;
32292;SDS011;43233;48.608;8.838;2022-10-16T15:38:31;2.60;;;2.40;;
32292;SDS011;43233;48.608;8.838;2022-10-16T15:40:57;3.67;;;2.27;;
32292;SDS011;43233;48.608;8.838;2022-10-16T15:43:23;3.53;;;1.90;;
32292;SDS011;43233;48.608;8.838;2022-10-16T15:46:08;1.70;;;1.60;;
32292;SDS011;43233;48.608;8.838;2022-10-16T15:48:36;2.70;;;2.20;;
32292;SDS011;43233;48.608;8.838;2022-10-16T15:51:05;3.10;;;2.40;;
32292;SDS011;43233;48.608;8.838;2022-10-16T15:53:32;3.70;;;2.47;;
32292;SDS011;43233;48.608;8.838;2022-10-16T15:56:01;1.83;;;1.70;;
32292;SDS011;43233;48.608;8.838;2022-10-16T15:58:27;2.27;;;2.13;;
32292;SDS011;43233;48.608;8.838;2022-10-16T16:00:56;3.80;;;2.17;;
32292;SDS011;43233;48.608;8.838;2022-10-16T16:03:23;2.00;;;1.90;;
32292;SDS011;43233;48.608;8.838;2022-10-16T16:05:49;2.87;;;2.13;;
32292;SDS011;43233;48.608;8.838;2022-10-16T16:08:14;7.13;;;1.73;;
32292;SDS011;43233;48.608;8.838;2022-10-16T16:10:41;1.90;;;1.80;;
32292;SDS011;43233;48.608;8.838;2022-10-16T16:13:07;2.13;;;1.87;;
32292;SDS011;43233;48.608;8.838;2022-10-16T16:15:32;1.70;;;1.60;;
32292;SDS011;43233;48.608;8.838;2022-10-16T16:17:58;4.80;;;2.10;;
32292;SDS011;43233;48.608;8.838;2022-10-16T16:20:25;2.37;;;2.17;;
32292;SDS011;43233;48.608;8.838;2022-10-16T16:22:50;3.40;;;3.10;;
32292;SDS011;43233;48.608;8.838;2022-10-16T16:25:16;3.33;;;3.03;;
32292;SDS011;43233;48.608;8.838;2022-10-16T16:27:42;3.23;;;3.00;;
32292;SDS011;43233;48.608;8.838;2022-10-16T16:30:09;5.17;;;2.50;;
32292;SDS011;43233;48.608;8.838;2022-10-16T16:32:36;2.60;;;2.40;;
32292;SDS011;43233;48.608;8.838;2022-10-16T16:35:02;6.40;;;2.07;;
32292;SDS011;43233;48.608;8.838;2022-10-16T16:37:28;2.40;;;1.80;;
32292;SDS011;43233;48.608;8.838;2022-10-16T16:39:54;3.17;;;2.50;;
32292;SDS011;43233;48.608;8.838;2022-10-16T16:42:23;5.17;;;2.13;;
32292;SDS011;43233;48.608;8.838;2022-10-16T16:44:52;2.07;;;1.93;;
32292;SDS011;43233;48.608;8.838;2022-10-16T16:47:17;6.93;;;2.40;;
32292;SDS011;43233;48.608;8.838;2022-10-16T16:49:43;2.40;;;2.20;;
32292;SDS011;43233;48.608;8.838;2022-10-16T16:52:11;3.20;;;2.40;;
32292;SDS011;43233;48.608;8.838;2022-10-16T16:54:36;1.97;;;1.80;;
32292;SDS011;43233;48.608;8.838;2022-10-16T16:57:02;4.90;;;2.00;;
32292;SDS011;43233;48.608;8.838;2022-10-16T16:59:29;2.93;;;2.73;;
32292;SDS011;43233;48.608;8.838;2022-10-16T17:01:57;14.63;;;4.80;;
32292;SDS011;43233;48.608;8.838;2022-10-16T17:04:26;12.57;;;4.90;;
32292;SDS011;43233;48.608;8.838;2022-10-16T17:06:52;4.40;;;4.00;;